Rowland, NC

2:32 AM EST on December 11, 2016 (GMT -0500)
Hunter's Run | | Change Station

Elev 175 ft 34.66 °N, 79.18 °W | Updated 1 minute ago

Clear
Clear
26.3 °F
Feels Like 26 °F
N
0.0
Wind Variable Wind from SSW
Gusts 0.0 mph

Today
High -- | Low -- °F
--% Chance of Precip.
Yesterday
High -- | Low -- °F
Precip. -- in
Pressure 30.51 in
Visibility 10.0 miles
Clouds Clear
Windchill 26 °F
Dew Point 24 °F
Humidity 91%
Rainfall 0.00 in
Snow Depth Not available.
7:14 AM 5:07 PM
Waxing Gibbous, 89% visible
METAR KLBT 110654Z AUTO 00000KT 10SM CLR M03/M04 A3051 RMK AO2 SLP331 I1001 T10331044
Pressure 30.51 in
Visibility 10.0 miles
Clouds Clear
Windchill 26 °F
Dew Point 24 °F
Humidity 91%
Rainfall 0.00 in
Snow Depth Not available.
7:14 AM 5:07 PM
Waxing Gibbous, 89% visible
METAR KLBT 110654Z AUTO 00000KT 10SM CLR M03/M04 A3051 RMK AO2 SLP331 I1001 T10331044

10-Day Weather Forecast

Almanac

Astronomy

Dec. 11, 2016 Rise Set
Actual Time
Civil Twilight
Nautical Twilight
Astronomical Twilight
Moon
Length of Visible Light
Length of Day
Tomorrow will be .
, % of the Moon is Illuminated

Today's Extremes

State Highs State Lows

Community

WunderPhotos

Upload Photos

1,956,707 photos uploaded!

WunderBlog® & News

Nearby

Air Quality

  Air Quality AQ Index Pollutant
Not available.

Snow Depth

Station Depth Elevation

Earthquake Activity

City Distance Mag. Time & Date
Minimum magnitude displayed is 2.5.

Coastal Water Temperatures

Place Temperature

Stations

Nearby Weather Stations

Station Location Temp. Windchill Dew Point Humidity Wind Precip. Elev Updated Type
                   

Watches & Warnings

There are currently no watches in effect.